Pine Ridge, Arkansas
Current Conditions -  °F | °C
As of 6:53 PM on Saturday 25 Oct 2014 (Local Time) from KMWT Reporting Station
Clear Clear  
Wind Chill: 73°   Ceiling: Unl
Heat Index: 73°   Visibility: 10mi
Dew Point: 66°   Wind: 0mph
Humidity: 79%   Direction: NA
Pressure: 30.04"   Gusts: NA
Location:  34.6186°N, 93.7769°W
Report Text: KMWT 252353Z AUTO 00000KT 10SM CLR 23/19 A3004 RMK AO2 SLP167 T02280189 10300 20228 53001
Loading
Personal Weather Stations






























Interactive Weather Map
Tropical Storm Tracking
New forecast layout! Learn more

10-Day Weather Forecast

Advertisements
Track Severe Weather on mobile